sensor_id;sensor_type;location;lat;lon;timestamp;temperature;humidity
9486;DHT22;4781;48.776;9.200;2022-09-03T00:00:17;16.70;99.90
9486;DHT22;4781;48.776;9.200;2022-09-03T00:09:02;16.80;99.90
9486;DHT22;4781;48.776;9.200;2022-09-03T00:11:51;16.80;99.90
9486;DHT22;4781;48.776;9.200;2022-09-03T00:14:27;16.80;99.90
9486;DHT22;4781;48.776;9.200;2022-09-03T00:17:02;16.90;99.90
9486;DHT22;4781;48.776;9.200;2022-09-03T00:20:02;16.90;99.90
9486;DHT22;4781;48.776;9.200;2022-09-03T00:22:42;16.90;99.90
9486;DHT22;4781;48.776;9.200;2022-09-03T00:25:11;17.00;99.90
9486;DHT22;4781;48.776;9.200;2022-09-03T00:27:43;17.00;99.90
9486;DHT22;4781;48.776;9.200;2022-09-03T00:30:14;17.10;99.90
9486;DHT22;4781;48.776;9.200;2022-09-03T00:32:58;17.10;99.90
9486;DHT22;4781;48.776;9.200;2022-09-03T00:38:36;17.10;99.90
9486;DHT22;4781;48.776;9.200;2022-09-03T00:44:13;17.10;99.90
9486;DHT22;4781;48.776;9.200;2022-09-03T00:50:26;17.20;99.90
9486;DHT22;4781;48.776;9.200;2022-09-03T00:53:28;17.20;99.90
9486;DHT22;4781;48.776;9.200;2022-09-03T00:56:29;17.30;99.90
9486;DHT22;4781;48.776;9.200;2022-09-03T00:59:50;17.30;99.90
9486;DHT22;4781;48.776;9.200;2022-09-03T01:04:54;17.20;99.90
9486;DHT22;4781;48.776;9.200;2022-09-03T01:10:29;17.20;99.90
9486;DHT22;4781;48.776;9.200;2022-09-03T01:13:22;17.30;99.90
9486;DHT22;4781;48.776;9.200;2022-09-03T01:19:03;17.20;99.90
9486;DHT22;4781;48.776;9.200;2022-09-03T01:21:46;17.20;99.90
9486;DHT22;4781;48.776;9.200;2022-09-03T01:30:25;17.20;99.90
9486;DHT22;4781;48.776;9.200;2022-09-03T01:33:09;17.20;99.90
9486;DHT22;4781;48.776;9.200;2022-09-03T01:39:02;17.20;99.90
9486;DHT22;4781;48.776;9.200;2022-09-03T01:41:41;17.20;99.90
9486;DHT22;4781;48.776;9.200;2022-09-03T01:47:52;17.20;99.90
9486;DHT22;4781;48.776;9.200;2022-09-03T02:02:25;17.20;99.90
9486;DHT22;4781;48.776;9.200;2022-09-03T02:05:13;17.20;99.90
9486;DHT22;4781;48.776;9.200;2022-09-03T02:07:57;17.20;99.90
9486;DHT22;4781;48.776;9.200;2022-09-03T02:10:29;17.20;99.90
9486;DHT22;4781;48.776;9.200;2022-09-03T02:15:43;17.30;99.90
9486;DHT22;4781;48.776;9.200;2022-09-03T02:18:32;17.20;99.90
9486;DHT22;4781;48.776;9.200;2022-09-03T02:20:59;17.20;99.90
9486;DHT22;4781;48.776;9.200;2022-09-03T02:23:28;17.20;99.90
9486;DHT22;4781;48.776;9.200;2022-09-03T02:25:59;17.20;99.90
9486;DHT22;4781;48.776;9.200;2022-09-03T02:28:29;17.20;99.90
9486;DHT22;4781;48.776;9.200;2022-09-03T02:30:58;17.20;99.90
9486;DHT22;4781;48.776;9.200;2022-09-03T02:33:35;17.20;99.90
9486;DHT22;4781;48.776;9.200;2022-09-03T02:35:59;17.20;99.90
9486;DHT22;4781;48.776;9.200;2022-09-03T02:38:27;17.20;99.90
9486;DHT22;4781;48.776;9.200;2022-09-03T02:40:55;17.20;99.90
9486;DHT22;4781;48.776;9.200;2022-09-03T02:46:22;17.10;99.90
9486;DHT22;4781;48.776;9.200;2022-09-03T02:48:53;17.10;99.90
9486;DHT22;4781;48.776;9.200;2022-09-03T02:51:22;17.00;99.90
9486;DHT22;4781;48.776;9.200;2022-09-03T02:53:50;16.90;99.90
9486;DHT22;4781;48.776;9.200;2022-09-03T02:56:19;16.90;99.90
9486;DHT22;4781;48.776;9.200;2022-09-03T02:58:49;16.90;99.90
9486;DHT22;4781;48.776;9.200;2022-09-03T03:01:17;16.80;99.90
9486;DHT22;4781;48.776;9.200;2022-09-03T03:03:46;16.70;99.90
9486;DHT22;4781;48.776;9.200;2022-09-03T03:06:14;16.60;99.90
9486;DHT22;4781;48.776;9.200;2022-09-03T03:08:44;16.60;99.90
9486;DHT22;4781;48.776;9.200;2022-09-03T03:11:14;16.40;99.90
9486;DHT22;4781;48.776;9.200;2022-09-03T03:13:45;16.50;99.90
9486;DHT22;4781;48.776;9.200;2022-09-03T03:16:14;16.60;99.90
9486;DHT22;4781;48.776;9.200;2022-09-03T03:18:43;16.60;99.90
9486;DHT22;4781;48.776;9.200;2022-09-03T03:21:14;16.60;99.90
9486;DHT22;4781;48.776;9.200;2022-09-03T03:23:44;16.60;99.90
9486;DHT22;4781;48.776;9.200;2022-09-03T03:26:15;16.60;99.90
9486;DHT22;4781;48.776;9.200;2022-09-03T03:28:46;16.60;99.90
9486;DHT22;4781;48.776;9.200;2022-09-03T03:31:19;16.50;99.90
9486;DHT22;4781;48.776;9.200;2022-09-03T03:33:53;16.60;99.90
9486;DHT22;4781;48.776;9.200;2022-09-03T03:36:24;16.50;99.90
9486;DHT22;4781;48.776;9.200;2022-09-03T03:38:55;16.50;99.90
9486;DHT22;4781;48.776;9.200;2022-09-03T03:41:27;16.40;99.90
9486;DHT22;4781;48.776;9.200;2022-09-03T03:44:02;16.40;99.90
9486;DHT22;4781;48.776;9.200;2022-09-03T03:46:36;16.40;99.90
9486;DHT22;4781;48.776;9.200;2022-09-03T03:49:07;16.30;99.90
9486;DHT22;4781;48.776;9.200;2022-09-03T03:51:37;16.40;99.90
9486;DHT22;4781;48.776;9.200;2022-09-03T03:54:06;16.30;99.90
9486;DHT22;4781;48.776;9.200;2022-09-03T03:56:34;16.30;99.90
9486;DHT22;4781;48.776;9.200;2022-09-03T03:59:04;16.30;99.90
9486;DHT22;4781;48.776;9.200;2022-09-03T04:01:32;16.30;99.90
9486;DHT22;4781;48.776;9.200;2022-09-03T04:04:00;16.30;99.90
9486;DHT22;4781;48.776;9.200;2022-09-03T04:06:31;16.40;99.90
9486;DHT22;4781;48.776;9.200;2022-09-03T04:08:59;16.40;99.90
9486;DHT22;4781;48.776;9.200;2022-09-03T04:11:27;16.40;99.90
9486;DHT22;4781;48.776;9.200;2022-09-03T04:13:56;16.40;99.90
9486;DHT22;4781;48.776;9.200;2022-09-03T04:16:26;16.40;99.90
9486;DHT22;4781;48.776;9.200;2022-09-03T04:18:55;16.40;99.90
9486;DHT22;4781;48.776;9.200;2022-09-03T04:21:26;16.40;99.90
9486;DHT22;4781;48.776;9.200;2022-09-03T04:23:56;16.40;99.90
9486;DHT22;4781;48.776;9.200;2022-09-03T04:26:27;16.30;99.90
9486;DHT22;4781;48.776;9.200;2022-09-03T04:28:57;16.30;99.90
9486;DHT22;4781;48.776;9.200;2022-09-03T04:31:26;16.30;99.90
9486;DHT22;4781;48.776;9.200;2022-09-03T04:33:55;16.20;99.90
9486;DHT22;4781;48.776;9.200;2022-09-03T04:36:25;16.20;99.90
9486;DHT22;4781;48.776;9.200;2022-09-03T04:38:57;16.20;99.90
9486;DHT22;4781;48.776;9.200;2022-09-03T04:41:27;16.10;99.90
9486;DHT22;4781;48.776;9.200;2022-09-03T04:43:57;16.00;99.90
9486;DHT22;4781;48.776;9.200;2022-09-03T04:46:27;16.00;99.90
9486;DHT22;4781;48.776;9.200;2022-09-03T04:49:00;16.10;99.90
9486;DHT22;4781;48.776;9.200;2022-09-03T04:51:28;16.00;99.90
9486;DHT22;4781;48.776;9.200;2022-09-03T04:54:00;16.00;99.90
9486;DHT22;4781;48.776;9.200;2022-09-03T04:56:30;16.00;99.90
9486;DHT22;4781;48.776;9.200;2022-09-03T04:59:06;16.00;99.90
9486;DHT22;4781;48.776;9.200;2022-09-03T05:01:37;16.00;99.90
9486;DHT22;4781;48.776;9.200;2022-09-03T05:04:07;16.10;99.90
9486;DHT22;4781;48.776;9.200;2022-09-03T05:06:36;16.10;99.90
9486;DHT22;4781;48.776;9.200;2022-09-03T05:09:05;16.20;99.90
9486;DHT22;4781;48.776;9.200;2022-09-03T05:11:33;16.20;99.90
9486;DHT22;4781;48.776;9.200;2022-09-03T05:14:02;16.20;99.90
9486;DHT22;4781;48.776;9.200;2022-09-03T05:16:32;16.20;99.90
9486;DHT22;4781;48.776;9.200;2022-09-03T05:19:01;16.20;99.90
9486;DHT22;4781;48.776;9.200;2022-09-03T05:21:31;16.30;99.90
9486;DHT22;4781;48.776;9.200;2022-09-03T05:24:02;16.20;99.90
9486;DHT22;4781;48.776;9.200;2022-09-03T05:26:34;16.20;99.90
9486;DHT22;4781;48.776;9.200;2022-09-03T05:29:08;16.30;99.90
9486;DHT22;4781;48.776;9.200;2022-09-03T05:31:37;16.40;99.90
9486;DHT22;4781;48.776;9.200;2022-09-03T05:34:07;16.50;99.90
9486;DHT22;4781;48.776;9.200;2022-09-03T05:36:36;16.50;99.90
9486;DHT22;4781;48.776;9.200;2022-09-03T05:39:06;16.50;99.90
9486;DHT22;4781;48.776;9.200;2022-09-03T05:41:34;16.50;99.90
9486;DHT22;4781;48.776;9.200;2022-09-03T05:44:02;16.50;99.90
9486;DHT22;4781;48.776;9.200;2022-09-03T05:46:32;16.60;99.90
9486;DHT22;4781;48.776;9.200;2022-09-03T05:49:05;16.60;99.90
9486;DHT22;4781;48.776;9.200;2022-09-03T05:51:35;16.60;99.90
9486;DHT22;4781;48.776;9.200;2022-09-03T05:54:05;16.70;99.90
9486;DHT22;4781;48.776;9.200;2022-09-03T05:56:35;16.70;99.90
9486;DHT22;4781;48.776;9.200;2022-09-03T05:59:07;16.80;99.90
9486;DHT22;4781;48.776;9.200;2022-09-03T06:01:38;16.80;99.90
9486;DHT22;4781;48.776;9.200;2022-09-03T06:04:13;16.90;99.90
9486;DHT22;4781;48.776;9.200;2022-09-03T06:06:43;16.90;99.90
9486;DHT22;4781;48.776;9.200;2022-09-03T06:09:15;16.90;99.90
9486;DHT22;4781;48.776;9.200;2022-09-03T06:11:46;17.00;99.90
9486;DHT22;4781;48.776;9.200;2022-09-03T06:14:16;17.00;99.90
9486;DHT22;4781;48.776;9.200;2022-09-03T06:16:46;17.00;99.90
9486;DHT22;4781;48.776;9.200;2022-09-03T06:19:16;16.90;99.90
9486;DHT22;4781;48.776;9.200;2022-09-03T06:21:45;16.90;99.90
9486;DHT22;4781;48.776;9.200;2022-09-03T06:24:16;16.90;99.90
9486;DHT22;4781;48.776;9.200;2022-09-03T06:26:45;16.90;99.90
9486;DHT22;4781;48.776;9.200;2022-09-03T06:29:15;17.00;99.90
9486;DHT22;4781;48.776;9.200;2022-09-03T06:31:45;17.00;99.90
9486;DHT22;4781;48.776;9.200;2022-09-03T06:34:14;17.10;99.90
9486;DHT22;4781;48.776;9.200;2022-09-03T06:36:44;17.20;99.90
9486;DHT22;4781;48.776;9.200;2022-09-03T06:39:12;17.30;99.90
9486;DHT22;4781;48.776;9.200;2022-09-03T06:41:41;17.30;99.90
9486;DHT22;4781;48.776;9.200;2022-09-03T06:44:10;17.30;99.90
9486;DHT22;4781;48.776;9.200;2022-09-03T06:46:40;17.40;99.90
9486;DHT22;4781;48.776;9.200;2022-09-03T06:49:09;17.40;99.90
9486;DHT22;4781;48.776;9.200;2022-09-03T06:51:38;17.50;99.90
9486;DHT22;4781;48.776;9.200;2022-09-03T06:54:11;17.50;99.90
9486;DHT22;4781;48.776;9.200;2022-09-03T06:56:41;17.40;99.90
9486;DHT22;4781;48.776;9.200;2022-09-03T06:59:11;17.40;99.90
9486;DHT22;4781;48.776;9.200;2022-09-03T07:01:41;17.40;99.90
9486;DHT22;4781;48.776;9.200;2022-09-03T07:04:12;17.70;99.90
9486;DHT22;4781;48.776;9.200;2022-09-03T07:06:45;17.50;99.90
9486;DHT22;4781;48.776;9.200;2022-09-03T07:09:14;17.60;99.90
9486;DHT22;4781;48.776;9.200;2022-09-03T07:11:44;17.80;99.90
9486;DHT22;4781;48.776;9.200;2022-09-03T07:14:16;17.80;99.90
9486;DHT22;4781;48.776;9.200;2022-09-03T07:16:45;17.90;99.90
9486;DHT22;4781;48.776;9.200;2022-09-03T07:19:15;17.90;99.90
9486;DHT22;4781;48.776;9.200;2022-09-03T07:21:44;18.00;99.90
9486;DHT22;4781;48.776;9.200;2022-09-03T07:24:12;18.00;99.90
9486;DHT22;4781;48.776;9.200;2022-09-03T07:26:41;18.10;99.90
9486;DHT22;4781;48.776;9.200;2022-09-03T07:29:11;18.20;99.90
9486;DHT22;4781;48.776;9.200;2022-09-03T07:31:42;18.10;99.90
9486;DHT22;4781;48.776;9.200;2022-09-03T07:34:12;18.10;99.90
9486;DHT22;4781;48.776;9.200;2022-09-03T07:36:46;18.20;99.90
9486;DHT22;4781;48.776;9.200;2022-09-03T07:39:16;18.30;99.90
9486;DHT22;4781;48.776;9.200;2022-09-03T07:41:45;18.50;99.90
9486;DHT22;4781;48.776;9.200;2022-09-03T07:44:16;18.70;99.90
9486;DHT22;4781;48.776;9.200;2022-09-03T07:46:46;18.70;99.90
9486;DHT22;4781;48.776;9.200;2022-09-03T07:49:16;18.90;99.90
9486;DHT22;4781;48.776;9.200;2022-09-03T07:51:45;19.00;99.90
9486;DHT22;4781;48.776;9.200;2022-09-03T07:54:15;19.30;99.90
9486;DHT22;4781;48.776;9.200;2022-09-03T07:56:44;19.60;99.90
9486;DHT22;4781;48.776;9.200;2022-09-03T07:59:12;19.60;99.90
9486;DHT22;4781;48.776;9.200;2022-09-03T08:01:41;19.80;99.90
9486;DHT22;4781;48.776;9.200;2022-09-03T08:04:09;19.90;99.90
9486;DHT22;4781;48.776;9.200;2022-09-03T08:06:38;19.80;99.90
9486;DHT22;4781;48.776;9.200;2022-09-03T08:09:09;19.80;99.90
9486;DHT22;4781;48.776;9.200;2022-09-03T08:11:40;19.60;99.90
9486;DHT22;4781;48.776;9.200;2022-09-03T08:14:11;19.60;99.90
9486;DHT22;4781;48.776;9.200;2022-09-03T08:16:46;19.70;99.90
9486;DHT22;4781;48.776;9.200;2022-09-03T08:19:14;19.80;99.90
9486;DHT22;4781;48.776;9.200;2022-09-03T08:21:44;19.90;99.90
9486;DHT22;4781;48.776;9.200;2022-09-03T08:24:15;20.00;99.90
9486;DHT22;4781;48.776;9.200;2022-09-03T08:26:46;20.10;99.90
9486;DHT22;4781;48.776;9.200;2022-09-03T08:29:14;20.40;99.90
9486;DHT22;4781;48.776;9.200;2022-09-03T08:31:43;20.60;99.90
9486;DHT22;4781;48.776;9.200;2022-09-03T08:34:11;20.70;99.90
9486;DHT22;4781;48.776;9.200;2022-09-03T08:36:40;21.10;99.90
9486;DHT22;4781;48.776;9.200;2022-09-03T08:39:09;21.40;99.90
9486;DHT22;4781;48.776;9.200;2022-09-03T08:47:31;21.60;99.90
9486;DHT22;4781;48.776;9.200;2022-09-03T08:55:58;21.90;99.90
9486;DHT22;4781;48.776;9.200;2022-09-03T08:58:36;22.00;99.90
9486;DHT22;4781;48.776;9.200;2022-09-03T09:04:10;21.70;99.90
9486;DHT22;4781;48.776;9.200;2022-09-03T09:10:09;22.20;99.90
9486;DHT22;4781;48.776;9.200;2022-09-03T09:13:10;22.20;99.90
9486;DHT22;4781;48.776;9.200;2022-09-03T09:19:12;22.30;99.90
9486;DHT22;4781;48.776;9.200;2022-09-03T09:21:51;22.20;99.90
9486;DHT22;4781;48.776;9.200;2022-09-03T09:24:28;22.20;99.90
9486;DHT22;4781;48.776;9.200;2022-09-03T09:27:00;22.00;99.90
9486;DHT22;4781;48.776;9.200;2022-09-03T09:29:34;22.00;99.90
9486;DHT22;4781;48.776;9.200;2022-09-03T09:32:04;21.90;99.90
9486;DHT22;4781;48.776;9.200;2022-09-03T09:34:37;21.80;99.90
9486;DHT22;4781;48.776;9.200;2022-09-03T09:37:15;21.90;99.90
9486;DHT22;4781;48.776;9.200;2022-09-03T09:39:56;22.30;99.90
9486;DHT22;4781;48.776;9.200;2022-09-03T09:42:25;22.80;99.90
9486;DHT22;4781;48.776;9.200;2022-09-03T09:44:56;23.40;99.90
9486;DHT22;4781;48.776;9.200;2022-09-03T09:47:29;23.60;99.90
9486;DHT22;4781;48.776;9.200;2022-09-03T09:50:01;23.70;99.90
9486;DHT22;4781;48.776;9.200;2022-09-03T09:52:32;23.90;99.90
9486;DHT22;4781;48.776;9.200;2022-09-03T09:55:09;24.30;99.90
9486;DHT22;4781;48.776;9.200;2022-09-03T09:57:39;24.60;99.90
9486;DHT22;4781;48.776;9.200;2022-09-03T10:00:11;24.80;99.90
9486;DHT22;4781;48.776;9.200;2022-09-03T10:02:49;24.50;99.90
9486;DHT22;4781;48.776;9.200;2022-09-03T10:05:22;24.40;99.90
9486;DHT22;4781;48.776;9.200;2022-09-03T10:07:58;24.60;99.90
9486;DHT22;4781;48.776;9.200;2022-09-03T10:10:39;24.50;99.90
9486;DHT22;4781;48.776;9.200;2022-09-03T10:13:14;24.50;99.90
9486;DHT22;4781;48.776;9.200;2022-09-03T10:15:50;24.40;99.90
9486;DHT22;4781;48.776;9.200;2022-09-03T10:18:44;24.20;99.90
9486;DHT22;4781;48.776;9.200;2022-09-03T10:27:24;24.10;99.90
9486;DHT22;4781;48.776;9.200;2022-09-03T10:29:54;23.90;99.90
9486;DHT22;4781;48.776;9.200;2022-09-03T10:32:38;24.00;99.90
9486;DHT22;4781;48.776;9.200;2022-09-03T10:41:26;23.50;99.90
9486;DHT22;4781;48.776;9.200;2022-09-03T10:47:27;23.80;99.90
9486;DHT22;4781;48.776;9.200;2022-09-03T10:50:24;23.90;99.90
9486;DHT22;4781;48.776;9.200;2022-09-03T10:53:06;23.90;99.90
9486;DHT22;4781;48.776;9.200;2022-09-03T11:02:00;24.20;99.90
9486;DHT22;4781;48.776;9.200;2022-09-03T11:07:31;24.10;99.90
9486;DHT22;4781;48.776;9.200;2022-09-03T11:10:14;24.10;99.90
9486;DHT22;4781;48.776;9.200;2022-09-03T11:13:00;23.90;99.90
9486;DHT22;4781;48.776;9.200;2022-09-03T11:15:50;23.70;99.90
9486;DHT22;4781;48.776;9.200;2022-09-03T11:21:04;23.70;99.90
9486;DHT22;4781;48.776;9.200;2022-09-03T11:23:35;23.70;99.90
9486;DHT22;4781;48.776;9.200;2022-09-03T11:26:08;23.60;99.90
9486;DHT22;4781;48.776;9.200;2022-09-03T11:31:32;23.50;99.90
9486;DHT22;4781;48.776;9.200;2022-09-03T11:34:27;23.40;99.90
9486;DHT22;4781;48.776;9.200;2022-09-03T11:39:54;22.90;99.90
9486;DHT22;4781;48.776;9.200;2022-09-03T11:42:36;23.10;99.90
9486;DHT22;4781;48.776;9.200;2022-09-03T11:48:00;23.10;99.90
9486;DHT22;4781;48.776;9.200;2022-09-03T11:50:32;23.10;99.90
9486;DHT22;4781;48.776;9.200;2022-09-03T11:55:52;22.90;99.90
9486;DHT22;4781;48.776;9.200;2022-09-03T11:58:34;22.90;99.90
9486;DHT22;4781;48.776;9.200;2022-09-03T12:01:10;22.70;99.90
9486;DHT22;4781;48.776;9.200;2022-09-03T12:03:49;22.50;99.90
9486;DHT22;4781;48.776;9.200;2022-09-03T12:09:29;22.20;99.90
9486;DHT22;4781;48.776;9.200;2022-09-03T12:12:10;22.20;99.90
9486;DHT22;4781;48.776;9.200;2022-09-03T12:23:29;21.50;99.90
9486;DHT22;4781;48.776;9.200;2022-09-03T12:26:14;21.40;99.90
9486;DHT22;4781;48.776;9.200;2022-09-03T12:28:48;21.30;99.90
9486;DHT22;4781;48.776;9.200;2022-09-03T12:31:26;21.10;99.90
9486;DHT22;4781;48.776;9.200;2022-09-03T12:34:07;20.90;99.90
9486;DHT22;4781;48.776;9.200;2022-09-03T12:36:42;20.70;99.90
9486;DHT22;4781;48.776;9.200;2022-09-03T12:39:15;20.30;99.90
9486;DHT22;4781;48.776;9.200;2022-09-03T12:49:47;19.90;99.90
9486;DHT22;4781;48.776;9.200;2022-09-03T12:52:25;19.10;99.90
9486;DHT22;4781;48.776;9.200;2022-09-03T12:58:05;18.90;99.90
9486;DHT22;4781;48.776;9.200;2022-09-03T13:00:41;18.90;99.90
9486;DHT22;4781;48.776;9.200;2022-09-03T13:05:54;18.20;99.90
9486;DHT22;4781;48.776;9.200;2022-09-03T13:08:31;18.00;99.90
9486;DHT22;4781;48.776;9.200;2022-09-03T13:11:02;18.00;99.90
9486;DHT22;4781;48.776;9.200;2022-09-03T13:13:33;17.90;99.90
9486;DHT22;4781;48.776;9.200;2022-09-03T13:30:37;17.90;99.90
9486;DHT22;4781;48.776;9.200;2022-09-03T13:33:23;17.90;99.90
9486;DHT22;4781;48.776;9.200;2022-09-03T13:36:03;18.00;99.90
9486;DHT22;4781;48.776;9.200;2022-09-03T13:41:34;18.30;99.90
9486;DHT22;4781;48.776;9.200;2022-09-03T13:44:13;18.40;99.90
9486;DHT22;4781;48.776;9.200;2022-09-03T13:58:26;18.90;99.90
9486;DHT22;4781;48.776;9.200;2022-09-03T14:01:23;18.80;99.90
9486;DHT22;4781;48.776;9.200;2022-09-03T14:04:00;18.90;99.90
9486;DHT22;4781;48.776;9.200;2022-09-03T14:06:53;18.70;99.90
9486;DHT22;4781;48.776;9.200;2022-09-03T14:12:36;19.10;99.90
9486;DHT22;4781;48.776;9.200;2022-09-03T14:15:07;19.50;99.90
9486;DHT22;4781;48.776;9.200;2022-09-03T14:26:26;19.40;99.90
9486;DHT22;4781;48.776;9.200;2022-09-03T14:29:49;19.40;99.90
9486;DHT22;4781;48.776;9.200;2022-09-03T14:31:57;19.50;99.90
9486;DHT22;4781;48.776;9.200;2022-09-03T14:34:51;19.50;99.90
9486;DHT22;4781;48.776;9.200;2022-09-03T14:38:06;19.60;99.90
9486;DHT22;4781;48.776;9.200;2022-09-03T14:40:42;19.50;99.90
9486;DHT22;4781;48.776;9.200;2022-09-03T14:43:42;19.60;99.90
9486;DHT22;4781;48.776;9.200;2022-09-03T14:46:48;19.50;99.90
9486;DHT22;4781;48.776;9.200;2022-09-03T14:49:45;19.70;99.90
9486;DHT22;4781;48.776;9.200;2022-09-03T14:52:52;19.90;99.90
9486;DHT22;4781;48.776;9.200;2022-09-03T14:55:55;20.20;99.90
9486;DHT22;4781;48.776;9.200;2022-09-03T14:58:38;20.50;99.90
9486;DHT22;4781;48.776;9.200;2022-09-03T15:01:16;20.70;99.90
9486;DHT22;4781;48.776;9.200;2022-09-03T15:10:11;21.20;99.90
9486;DHT22;4781;48.776;9.200;2022-09-03T15:13:23;21.20;99.90
9486;DHT22;4781;48.776;9.200;2022-09-03T15:16:10;21.40;99.90
9486;DHT22;4781;48.776;9.200;2022-09-03T15:25:01;21.50;99.90
9486;DHT22;4781;48.776;9.200;2022-09-03T15:33:14;21.10;99.90
9486;DHT22;4781;48.776;9.200;2022-09-03T15:36:17;21.00;99.90
9486;DHT22;4781;48.776;9.200;2022-09-03T15:39:00;21.00;99.90
9486;DHT22;4781;48.776;9.200;2022-09-03T15:44:41;21.90;99.90
9486;DHT22;4781;48.776;9.200;2022-09-03T15:53:48;22.30;99.90
9486;DHT22;4781;48.776;9.200;2022-09-03T15:56:52;22.10;99.90
9486;DHT22;4781;48.776;9.200;2022-09-03T16:02:49;21.70;99.90
9486;DHT22;4781;48.776;9.200;2022-09-03T16:11:00;21.20;99.90
9486;DHT22;4781;48.776;9.200;2022-09-03T16:16:46;21.20;99.90
9486;DHT22;4781;48.776;9.200;2022-09-03T16:22:21;21.20;99.90
9486;DHT22;4781;48.776;9.200;2022-09-03T16:27:49;20.90;99.90
9486;DHT22;4781;48.776;9.200;2022-09-03T16:30:42;20.80;99.90
9486;DHT22;4781;48.776;9.200;2022-09-03T16:39:20;20.50;99.90
9486;DHT22;4781;48.776;9.200;2022-09-03T16:44:48;20.40;99.90
9486;DHT22;4781;48.776;9.200;2022-09-03T16:50:24;20.30;99.90
9486;DHT22;4781;48.776;9.200;2022-09-03T16:53:28;20.30;99.90
9486;DHT22;4781;48.776;9.200;2022-09-03T16:59:00;20.20;99.90
9486;DHT22;4781;48.776;9.200;2022-09-03T17:04:33;20.20;99.90
9486;DHT22;4781;48.776;9.200;2022-09-03T17:07:26;20.20;99.90
9486;DHT22;4781;48.776;9.200;2022-09-03T17:10:30;20.30;99.90
9486;DHT22;4781;48.776;9.200;2022-09-03T17:16:34;20.10;99.90
9486;DHT22;4781;48.776;9.200;2022-09-03T17:22:08;20.00;99.90
9486;DHT22;4781;48.776;9.200;2022-09-03T17:24:42;20.10;99.90
9486;DHT22;4781;48.776;9.200;2022-09-03T17:30:15;20.00;99.90
9486;DHT22;4781;48.776;9.200;2022-09-03T17:36:14;19.90;99.90
9486;DHT22;4781;48.776;9.200;2022-09-03T17:39:16;19.80;99.90
9486;DHT22;4781;48.776;9.200;2022-09-03T17:42:01;19.70;99.90
9486;DHT22;4781;48.776;9.200;2022-09-03T17:50:41;19.40;99.90
9486;DHT22;4781;48.776;9.200;2022-09-03T17:53:26;19.30;99.90
9486;DHT22;4781;48.776;9.200;2022-09-03T17:55:59;19.20;99.90
9486;DHT22;4781;48.776;9.200;2022-09-03T17:58:40;19.20;99.90
9486;DHT22;4781;48.776;9.200;2022-09-03T18:01:22;19.20;99.90
9486;DHT22;4781;48.776;9.200;2022-09-03T18:03:58;19.20;99.90
9486;DHT22;4781;48.776;9.200;2022-09-03T18:06:48;19.20;99.90
9486;DHT22;4781;48.776;9.200;2022-09-03T18:09:26;19.20;99.90
9486;DHT22;4781;48.776;9.200;2022-09-03T18:12:26;19.10;99.90
9486;DHT22;4781;48.776;9.200;2022-09-03T18:15:04;19.00;99.90
9486;DHT22;4781;48.776;9.200;2022-09-03T18:17:42;18.90;99.90
9486;DHT22;4781;48.776;9.200;2022-09-03T18:20:14;18.90;99.90
9486;DHT22;4781;48.776;9.200;2022-09-03T18:26:24;18.70;99.90
9486;DHT22;4781;48.776;9.200;2022-09-03T18:29:24;18.70;99.90
9486;DHT22;4781;48.776;9.200;2022-09-03T18:32:06;18.60;99.90
9486;DHT22;4781;48.776;9.200;2022-09-03T18:34:52;18.50;99.90
9486;DHT22;4781;48.776;9.200;2022-09-03T18:37:38;18.40;99.90
9486;DHT22;4781;48.776;9.200;2022-09-03T18:40:29;18.20;99.90
9486;DHT22;4781;48.776;9.200;2022-09-03T18:43:32;18.20;99.90
9486;DHT22;4781;48.776;9.200;2022-09-03T18:49:52;18.30;99.90
9486;DHT22;4781;48.776;9.200;2022-09-03T18:52:54;18.20;99.90
9486;DHT22;4781;48.776;9.200;2022-09-03T18:55:56;18.20;99.90
9486;DHT22;4781;48.776;9.200;2022-09-03T18:58:57;18.20;99.90
9486;DHT22;4781;48.776;9.200;2022-09-03T19:02:01;18.10;99.90
9486;DHT22;4781;48.776;9.200;2022-09-03T19:05:05;18.10;99.90
9486;DHT22;4781;48.776;9.200;2022-09-03T19:08:10;18.10;99.90
9486;DHT22;4781;48.776;9.200;2022-09-03T19:20:42;17.90;99.90
9486;DHT22;4781;48.776;9.200;2022-09-03T19:23:29;17.90;99.90
9486;DHT22;4781;48.776;9.200;2022-09-03T19:36:36;17.80;99.90
9486;DHT22;4781;48.776;9.200;2022-09-03T19:42:05;17.70;99.90
9486;DHT22;4781;48.776;9.200;2022-09-03T19:45:11;17.60;99.90
9486;DHT22;4781;48.776;9.200;2022-09-03T19:54:52;17.40;99.90
9486;DHT22;4781;48.776;9.200;2022-09-03T19:57:41;17.50;99.90
9486;DHT22;4781;48.776;9.200;2022-09-03T20:00:28;17.50;99.90
9486;DHT22;4781;48.776;9.200;2022-09-03T20:03:16;17.40;99.90
9486;DHT22;4781;48.776;9.200;2022-09-03T20:06:05;17.30;99.90
9486;DHT22;4781;48.776;9.200;2022-09-03T20:08:53;17.30;99.90
9486;DHT22;4781;48.776;9.200;2022-09-03T20:11:42;17.30;99.90
9486;DHT22;4781;48.776;9.200;2022-09-03T20:14:18;17.40;99.90
9486;DHT22;4781;48.776;9.200;2022-09-03T20:19:52;17.40;99.90
9486;DHT22;4781;48.776;9.200;2022-09-03T20:31:54;17.20;99.90
9486;DHT22;4781;48.776;9.200;2022-09-03T20:34:45;17.20;99.90
9486;DHT22;4781;48.776;9.200;2022-09-03T20:37:36;17.20;99.90
9486;DHT22;4781;48.776;9.200;2022-09-03T20:40:25;17.20;99.90
9486;DHT22;4781;48.776;9.200;2022-09-03T20:46:05;17.10;99.90
9486;DHT22;4781;48.776;9.200;2022-09-03T20:52:02;17.10;99.90
9486;DHT22;4781;48.776;9.200;2022-09-03T20:57:23;17.10;99.90
9486;DHT22;4781;48.776;9.200;2022-09-03T21:00:12;17.20;99.90
9486;DHT22;4781;48.776;9.200;2022-09-03T21:09:00;17.00;99.90
9486;DHT22;4781;48.776;9.200;2022-09-03T21:11:55;17.00;99.90
9486;DHT22;4781;48.776;9.200;2022-09-03T21:23:43;17.00;99.90
9486;DHT22;4781;48.776;9.200;2022-09-03T21:26:24;17.10;99.90
9486;DHT22;4781;48.776;9.200;2022-09-03T21:31:44;17.20;99.90
9486;DHT22;4781;48.776;9.200;2022-09-03T21:34:11;17.20;99.90
9486;DHT22;4781;48.776;9.200;2022-09-03T21:36:45;17.20;99.90
9486;DHT22;4781;48.776;9.200;2022-09-03T21:39:39;17.20;99.90
9486;DHT22;4781;48.776;9.200;2022-09-03T21:47:54;17.10;99.90
9486;DHT22;4781;48.776;9.200;2022-09-03T21:56:18;17.10;99.90
9486;DHT22;4781;48.776;9.200;2022-09-03T21:59:03;17.10;99.90
9486;DHT22;4781;48.776;9.200;2022-09-03T22:01:36;17.20;99.90
9486;DHT22;4781;48.776;9.200;2022-09-03T22:04:23;17.10;99.90
9486;DHT22;4781;48.776;9.200;2022-09-03T22:10:14;16.80;99.90
9486;DHT22;4781;48.776;9.200;2022-09-03T22:15:49;16.80;99.90
9486;DHT22;4781;48.776;9.200;2022-09-03T22:18:29;16.80;99.90
9486;DHT22;4781;48.776;9.200;2022-09-03T22:24:12;16.70;99.90
9486;DHT22;4781;48.776;9.200;2022-09-03T22:30:09;16.70;99.90
9486;DHT22;4781;48.776;9.200;2022-09-03T22:32:50;16.60;99.90
9486;DHT22;4781;48.776;9.200;2022-09-03T22:50:21;16.70;99.90
9486;DHT22;4781;48.776;9.200;2022-09-03T22:53:07;16.70;99.90
9486;DHT22;4781;48.776;9.200;2022-09-03T22:55:44;16.70;99.90
9486;DHT22;4781;48.776;9.200;2022-09-03T22:58:25;16.70;99.90
9486;DHT22;4781;48.776;9.200;2022-09-03T23:00:57;16.70;99.90
9486;DHT22;4781;48.776;9.200;2022-09-03T23:03:26;16.70;99.90
9486;DHT22;4781;48.776;9.200;2022-09-03T23:06:02;16.60;99.90
9486;DHT22;4781;48.776;9.200;2022-09-03T23:08:36;16.60;99.90
9486;DHT22;4781;48.776;9.200;2022-09-03T23:11:33;16.50;99.90
9486;DHT22;4781;48.776;9.200;2022-09-03T23:14:07;16.60;99.90
9486;DHT22;4781;48.776;9.200;2022-09-03T23:16:53;16.50;99.90
9486;DHT22;4781;48.776;9.200;2022-09-03T23:19:27;16.50;99.90
9486;DHT22;4781;48.776;9.200;2022-09-03T23:22:11;16.50;99.90
9486;DHT22;4781;48.776;9.200;2022-09-03T23:25:20;16.40;99.90